sensor_id;sensor_type;location;lat;lon;timestamp;P1;durP1;ratioP1;P2;durP2;ratioP2
25549;SDS011;13444;50.562;7.262;2022-09-29T00:00:34;3.80;;;1.70;;
25549;SDS011;13444;50.562;7.262;2022-09-29T00:03:00;2.53;;;2.15;;
25549;SDS011;13444;50.562;7.262;2022-09-29T00:05:26;3.00;;;1.98;;
25549;SDS011;13444;50.562;7.262;2022-09-29T00:07:52;4.85;;;2.03;;
25549;SDS011;13444;50.562;7.262;2022-09-29T00:10:17;3.22;;;2.13;;
25549;SDS011;13444;50.562;7.262;2022-09-29T00:12:43;3.75;;;2.42;;
25549;SDS011;13444;50.562;7.262;2022-09-29T00:15:08;5.05;;;2.55;;
25549;SDS011;13444;50.562;7.262;2022-09-29T00:17:34;4.03;;;2.20;;
25549;SDS011;13444;50.562;7.262;2022-09-29T00:20:00;3.05;;;1.92;;
25549;SDS011;13444;50.562;7.262;2022-09-29T00:22:26;5.30;;;1.75;;
25549;SDS011;13444;50.562;7.262;2022-09-29T00:24:51;3.75;;;2.25;;
25549;SDS011;13444;50.562;7.262;2022-09-29T00:27:17;5.57;;;3.05;;
25549;SDS011;13444;50.562;7.262;2022-09-29T00:29:43;5.72;;;2.72;;
25549;SDS011;13444;50.562;7.262;2022-09-29T00:32:09;3.65;;;2.72;;
25549;SDS011;13444;50.562;7.262;2022-09-29T00:34:35;4.90;;;3.17;;
25549;SDS011;13444;50.562;7.262;2022-09-29T00:37:01;5.63;;;3.28;;
25549;SDS011;13444;50.562;7.262;2022-09-29T00:39:27;4.13;;;3.42;;
25549;SDS011;13444;50.562;7.262;2022-09-29T00:41:52;4.45;;;3.50;;
25549;SDS011;13444;50.562;7.262;2022-09-29T00:46:59;5.78;;;3.47;;
25549;SDS011;13444;50.562;7.262;2022-09-29T00:49:32;4.78;;;2.95;;
25549;SDS011;13444;50.562;7.262;2022-09-29T00:52:17;5.40;;;2.47;;
25549;SDS011;13444;50.562;7.262;2022-09-29T00:54:45;5.57;;;2.55;;
25549;SDS011;13444;50.562;7.262;2022-09-29T00:57:15;3.67;;;2.40;;
25549;SDS011;13444;50.562;7.262;2022-09-29T00:59:46;4.35;;;3.03;;
25549;SDS011;13444;50.562;7.262;2022-09-29T01:02:26;6.90;;;3.92;;
25549;SDS011;13444;50.562;7.262;2022-09-29T01:04:53;6.68;;;4.18;;
25549;SDS011;13444;50.562;7.262;2022-09-29T01:07:22;11.70;;;5.13;;
25549;SDS011;13444;50.562;7.262;2022-09-29T01:09:50;9.00;;;5.35;;
25549;SDS011;13444;50.562;7.262;2022-09-29T01:12:18;14.38;;;6.70;;
25549;SDS011;13444;50.562;7.262;2022-09-29T01:14:44;9.57;;;6.15;;
25549;SDS011;13444;50.562;7.262;2022-09-29T01:17:11;11.07;;;5.75;;
25549;SDS011;13444;50.562;7.262;2022-09-29T01:19:41;11.27;;;6.18;;
25549;SDS011;13444;50.562;7.262;2022-09-29T01:22:36;11.57;;;6.85;;
25549;SDS011;13444;50.562;7.262;2022-09-29T01:41:52;8.77;;;5.53;;
25549;SDS011;13444;50.562;7.262;2022-09-29T01:44:34;7.72;;;4.97;;
25549;SDS011;13444;50.562;7.262;2022-09-29T01:47:06;7.93;;;4.38;;
25549;SDS011;13444;50.562;7.262;2022-09-29T01:49:55;6.43;;;4.78;;
25549;SDS011;13444;50.562;7.262;2022-09-29T01:52:26;7.73;;;5.13;;
25549;SDS011;13444;50.562;7.262;2022-09-29T01:54:59;10.77;;;5.65;;
25549;SDS011;13444;50.562;7.262;2022-09-29T01:57:49;9.75;;;5.53;;
25549;SDS011;13444;50.562;7.262;2022-09-29T02:00:16;10.53;;;6.60;;
25549;SDS011;13444;50.562;7.262;2022-09-29T02:02:49;9.93;;;6.95;;
25549;SDS011;13444;50.562;7.262;2022-09-29T02:05:32;6.57;;;4.97;;
25549;SDS011;13444;50.562;7.262;2022-09-29T02:08:12;8.80;;;5.35;;
25549;SDS011;13444;50.562;7.262;2022-09-29T02:10:45;10.98;;;5.90;;
25549;SDS011;13444;50.562;7.262;2022-09-29T02:13:19;10.50;;;7.33;;
25549;SDS011;13444;50.562;7.262;2022-09-29T02:15:47;14.60;;;8.43;;
25549;SDS011;13444;50.562;7.262;2022-09-29T02:18:19;20.92;;;11.27;;
25549;SDS011;13444;50.562;7.262;2022-09-29T02:20:47;20.05;;;12.45;;
25549;SDS011;13444;50.562;7.262;2022-09-29T02:23:14;17.08;;;9.88;;
25549;SDS011;13444;50.562;7.262;2022-09-29T02:25:40;16.98;;;8.63;;
25549;SDS011;13444;50.562;7.262;2022-09-29T02:28:06;13.65;;;7.43;;
25549;SDS011;13444;50.562;7.262;2022-09-29T02:30:32;9.77;;;6.65;;
25549;SDS011;13444;50.562;7.262;2022-09-29T02:32:58;10.95;;;6.95;;
25549;SDS011;13444;50.562;7.262;2022-09-29T02:35:24;14.00;;;8.60;;
25549;SDS011;13444;50.562;7.262;2022-09-29T02:38:03;17.58;;;8.93;;
25549;SDS011;13444;50.562;7.262;2022-09-29T02:41:04;11.10;;;6.57;;
25549;SDS011;13444;50.562;7.262;2022-09-29T02:46:39;9.20;;;6.63;;
25549;SDS011;13444;50.562;7.262;2022-09-29T02:49:22;11.75;;;7.30;;
25549;SDS011;13444;50.562;7.262;2022-09-29T02:52:23;11.88;;;7.32;;
25549;SDS011;13444;50.562;7.262;2022-09-29T02:55:10;12.53;;;7.00;;
25549;SDS011;13444;50.562;7.262;2022-09-29T03:00:34;14.32;;;7.97;;
25549;SDS011;13444;50.562;7.262;2022-09-29T03:03:00;13.33;;;8.03;;
25549;SDS011;13444;50.562;7.262;2022-09-29T03:05:25;16.90;;;8.33;;
25549;SDS011;13444;50.562;7.262;2022-09-29T03:07:51;17.90;;;9.32;;
25549;SDS011;13444;50.562;7.262;2022-09-29T03:10:17;15.05;;;8.35;;
25549;SDS011;13444;50.562;7.262;2022-09-29T03:12:43;17.97;;;10.37;;
25549;SDS011;13444;50.562;7.262;2022-09-29T03:15:10;21.80;;;11.67;;
25549;SDS011;13444;50.562;7.262;2022-09-29T03:17:36;18.77;;;11.32;;
25549;SDS011;13444;50.562;7.262;2022-09-29T03:20:02;17.10;;;9.48;;
25549;SDS011;13444;50.562;7.262;2022-09-29T03:22:29;15.30;;;8.67;;
25549;SDS011;13444;50.562;7.262;2022-09-29T03:24:55;17.73;;;8.47;;
25549;SDS011;13444;50.562;7.262;2022-09-29T03:27:21;17.80;;;9.00;;
25549;SDS011;13444;50.562;7.262;2022-09-29T03:29:47;16.43;;;9.23;;
25549;SDS011;13444;50.562;7.262;2022-09-29T03:32:12;13.27;;;8.87;;
25549;SDS011;13444;50.562;7.262;2022-09-29T03:34:38;13.40;;;8.55;;
25549;SDS011;13444;50.562;7.262;2022-09-29T03:37:03;14.13;;;9.07;;
25549;SDS011;13444;50.562;7.262;2022-09-29T03:39:29;13.93;;;8.25;;
25549;SDS011;13444;50.562;7.262;2022-09-29T03:41:54;14.52;;;8.50;;
25549;SDS011;13444;50.562;7.262;2022-09-29T03:44:21;12.45;;;8.73;;
25549;SDS011;13444;50.562;7.262;2022-09-29T03:46:46;13.55;;;8.52;;
25549;SDS011;13444;50.562;7.262;2022-09-29T03:49:12;15.40;;;9.15;;
25549;SDS011;13444;50.562;7.262;2022-09-29T03:51:39;13.20;;;8.37;;
25549;SDS011;13444;50.562;7.262;2022-09-29T03:54:05;14.68;;;8.57;;
25549;SDS011;13444;50.562;7.262;2022-09-29T03:56:32;11.25;;;7.43;;
25549;SDS011;13444;50.562;7.262;2022-09-29T03:58:58;8.63;;;5.37;;
25549;SDS011;13444;50.562;7.262;2022-09-29T04:01:24;6.72;;;4.68;;
25549;SDS011;13444;50.562;7.262;2022-09-29T04:03:49;6.47;;;5.13;;
25549;SDS011;13444;50.562;7.262;2022-09-29T04:06:15;5.33;;;4.17;;
25549;SDS011;13444;50.562;7.262;2022-09-29T04:08:41;4.97;;;4.28;;
25549;SDS011;13444;50.562;7.262;2022-09-29T04:11:06;6.43;;;3.70;;
25549;SDS011;13444;50.562;7.262;2022-09-29T04:13:32;7.13;;;3.70;;
25549;SDS011;13444;50.562;7.262;2022-09-29T04:15:58;5.87;;;3.70;;
25549;SDS011;13444;50.562;7.262;2022-09-29T04:18:24;6.57;;;4.03;;
25549;SDS011;13444;50.562;7.262;2022-09-29T04:20:50;6.27;;;4.30;;
25549;SDS011;13444;50.562;7.262;2022-09-29T04:23:16;6.90;;;4.20;;
25549;SDS011;13444;50.562;7.262;2022-09-29T04:25:43;4.10;;;3.63;;
25549;SDS011;13444;50.562;7.262;2022-09-29T04:28:09;7.18;;;3.83;;
25549;SDS011;13444;50.562;7.262;2022-09-29T04:30:35;4.67;;;3.83;;
25549;SDS011;13444;50.562;7.262;2022-09-29T04:33:01;5.63;;;4.80;;
25549;SDS011;13444;50.562;7.262;2022-09-29T04:35:27;7.13;;;4.30;;
25549;SDS011;13444;50.562;7.262;2022-09-29T04:37:56;4.67;;;4.03;;
25549;SDS011;13444;50.562;7.262;2022-09-29T04:40:23;5.87;;;3.83;;
25549;SDS011;13444;50.562;7.262;2022-09-29T04:42:49;4.40;;;3.83;;
25549;SDS011;13444;50.562;7.262;2022-09-29T04:45:14;6.43;;;4.27;;
25549;SDS011;13444;50.562;7.262;2022-09-29T04:47:40;6.17;;;4.63;;
25549;SDS011;13444;50.562;7.262;2022-09-29T04:50:06;10.00;;;7.63;;
25549;SDS011;13444;50.562;7.262;2022-09-29T04:52:33;12.30;;;7.27;;
25549;SDS011;13444;50.562;7.262;2022-09-29T04:54:59;12.47;;;8.00;;
25549;SDS011;13444;50.562;7.262;2022-09-29T04:57:25;15.43;;;10.00;;
25549;SDS011;13444;50.562;7.262;2022-09-29T04:59:51;12.50;;;10.07;;
25549;SDS011;13444;50.562;7.262;2022-09-29T05:02:17;11.07;;;7.80;;
25549;SDS011;13444;50.562;7.262;2022-09-29T05:04:43;11.00;;;6.90;;
25549;SDS011;13444;50.562;7.262;2022-09-29T05:07:09;7.90;;;6.93;;
25549;SDS011;13444;50.562;7.262;2022-09-29T05:09:35;6.97;;;5.77;;
25549;SDS011;13444;50.562;7.262;2022-09-29T05:12:00;7.13;;;6.20;;
25549;SDS011;13444;50.562;7.262;2022-09-29T05:14:26;8.53;;;5.37;;
25549;SDS011;13444;50.562;7.262;2022-09-29T05:16:55;6.63;;;4.87;;
25549;SDS011;13444;50.562;7.262;2022-09-29T05:19:21;8.90;;;5.43;;
25549;SDS011;13444;50.562;7.262;2022-09-29T05:21:47;11.60;;;5.40;;
25549;SDS011;13444;50.562;7.262;2022-09-29T05:24:13;6.78;;;5.05;;
25549;SDS011;13444;50.562;7.262;2022-09-29T05:26:38;5.35;;;3.97;;
25549;SDS011;13444;50.562;7.262;2022-09-29T05:29:04;5.13;;;3.53;;
25549;SDS011;13444;50.562;7.262;2022-09-29T05:31:30;5.57;;;3.40;;
25549;SDS011;13444;50.562;7.262;2022-09-29T05:33:55;5.10;;;3.75;;
25549;SDS011;13444;50.562;7.262;2022-09-29T05:36:22;6.53;;;4.28;;
25549;SDS011;13444;50.562;7.262;2022-09-29T05:38:48;5.55;;;3.75;;
25549;SDS011;13444;50.562;7.262;2022-09-29T05:41:13;5.50;;;4.07;;
25549;SDS011;13444;50.562;7.262;2022-09-29T05:43:46;5.70;;;4.18;;
25549;SDS011;13444;50.562;7.262;2022-09-29T05:46:13;5.68;;;3.85;;
25549;SDS011;13444;50.562;7.262;2022-09-29T05:48:40;10.73;;;5.10;;
25549;SDS011;13444;50.562;7.262;2022-09-29T05:51:11;12.63;;;6.15;;
25549;SDS011;13444;50.562;7.262;2022-09-29T05:53:38;9.25;;;5.93;;
25549;SDS011;13444;50.562;7.262;2022-09-29T05:56:09;12.90;;;7.43;;
25549;SDS011;13444;50.562;7.262;2022-09-29T05:58:39;12.00;;;7.45;;
25549;SDS011;13444;50.562;7.262;2022-09-29T06:01:09;12.23;;;9.00;;
25549;SDS011;13444;50.562;7.262;2022-09-29T06:03:37;10.70;;;8.25;;
25549;SDS011;13444;50.562;7.262;2022-09-29T06:06:04;10.65;;;8.60;;
25549;SDS011;13444;50.562;7.262;2022-09-29T06:08:30;11.35;;;7.75;;
25549;SDS011;13444;50.562;7.262;2022-09-29T06:11:01;13.60;;;8.47;;
25549;SDS011;13444;50.562;7.262;2022-09-29T06:13:30;11.55;;;9.20;;
25549;SDS011;13444;50.562;7.262;2022-09-29T06:15:59;13.83;;;9.60;;
25549;SDS011;13444;50.562;7.262;2022-09-29T06:18:25;12.10;;;9.90;;
25549;SDS011;13444;50.562;7.262;2022-09-29T06:20:51;18.03;;;10.17;;
25549;SDS011;13444;50.562;7.262;2022-09-29T06:23:16;10.67;;;8.67;;
25549;SDS011;13444;50.562;7.262;2022-09-29T06:25:42;10.43;;;8.53;;
25549;SDS011;13444;50.562;7.262;2022-09-29T06:28:07;12.10;;;8.37;;
25549;SDS011;13444;50.562;7.262;2022-09-29T06:30:33;15.43;;;8.03;;
25549;SDS011;13444;50.562;7.262;2022-09-29T06:32:58;12.83;;;9.77;;
25549;SDS011;13444;50.562;7.262;2022-09-29T06:35:24;15.67;;;11.50;;
25549;SDS011;13444;50.562;7.262;2022-09-29T06:38:08;19.10;;;13.13;;
25549;SDS011;13444;50.562;7.262;2022-09-29T06:40:34;16.53;;;11.90;;
25549;SDS011;13444;50.562;7.262;2022-09-29T06:42:59;16.93;;;11.97;;
25549;SDS011;13444;50.562;7.262;2022-09-29T06:45:25;19.97;;;13.90;;
25549;SDS011;13444;50.562;7.262;2022-09-29T06:47:56;16.03;;;12.50;;
25549;SDS011;13444;50.562;7.262;2022-09-29T06:50:23;19.53;;;13.63;;
25549;SDS011;13444;50.562;7.262;2022-09-29T06:52:48;18.63;;;13.47;;
25549;SDS011;13444;50.562;7.262;2022-09-29T06:55:14;17.33;;;13.00;;
25549;SDS011;13444;50.562;7.262;2022-09-29T06:57:39;18.30;;;13.07;;
25549;SDS011;13444;50.562;7.262;2022-09-29T07:00:05;19.00;;;13.53;;
25549;SDS011;13444;50.562;7.262;2022-09-29T07:02:31;18.23;;;13.13;;
25549;SDS011;13444;50.562;7.262;2022-09-29T07:04:57;22.27;;;15.47;;
25549;SDS011;13444;50.562;7.262;2022-09-29T07:07:22;20.70;;;15.77;;
25549;SDS011;13444;50.562;7.262;2022-09-29T07:09:48;19.53;;;14.90;;
25549;SDS011;13444;50.562;7.262;2022-09-29T07:12:13;23.03;;;15.83;;
25549;SDS011;13444;50.562;7.262;2022-09-29T07:14:39;22.93;;;15.77;;
25549;SDS011;13444;50.562;7.262;2022-09-29T07:17:04;22.47;;;15.10;;
25549;SDS011;13444;50.562;7.262;2022-09-29T07:19:30;19.67;;;14.30;;
25549;SDS011;13444;50.562;7.262;2022-09-29T07:21:56;20.07;;;13.50;;
25549;SDS011;13444;50.562;7.262;2022-09-29T07:24:22;21.40;;;13.67;;
25549;SDS011;13444;50.562;7.262;2022-09-29T07:26:48;16.60;;;13.10;;
25549;SDS011;13444;50.562;7.262;2022-09-29T07:29:14;19.33;;;13.77;;
25549;SDS011;13444;50.562;7.262;2022-09-29T07:31:40;20.23;;;14.37;;
25549;SDS011;13444;50.562;7.262;2022-09-29T07:34:05;20.47;;;15.60;;
25549;SDS011;13444;50.562;7.262;2022-09-29T07:36:31;21.23;;;15.83;;
25549;SDS011;13444;50.562;7.262;2022-09-29T07:38:57;21.57;;;14.87;;
25549;SDS011;13444;50.562;7.262;2022-09-29T07:41:23;18.80;;;12.90;;
25549;SDS011;13444;50.562;7.262;2022-09-29T07:43:49;20.30;;;14.50;;
25549;SDS011;13444;50.562;7.262;2022-09-29T07:46:14;25.40;;;15.23;;
25549;SDS011;13444;50.562;7.262;2022-09-29T07:48:40;21.47;;;15.17;;
25549;SDS011;13444;50.562;7.262;2022-09-29T07:51:09;19.40;;;13.77;;
25549;SDS011;13444;50.562;7.262;2022-09-29T07:53:36;19.43;;;15.50;;
25549;SDS011;13444;50.562;7.262;2022-09-29T07:56:03;22.17;;;16.07;;
25549;SDS011;13444;50.562;7.262;2022-09-29T07:58:37;24.90;;;17.30;;
25549;SDS011;13444;50.562;7.262;2022-09-29T08:01:04;23.57;;;16.73;;
25549;SDS011;13444;50.562;7.262;2022-09-29T08:03:34;22.33;;;16.60;;
25549;SDS011;13444;50.562;7.262;2022-09-29T08:06:05;19.17;;;13.73;;
25549;SDS011;13444;50.562;7.262;2022-09-29T08:08:31;14.63;;;10.47;;
25549;SDS011;13444;50.562;7.262;2022-09-29T08:11:02;15.73;;;10.77;;
25549;SDS011;13444;50.562;7.262;2022-09-29T08:13:29;13.27;;;10.47;;
25549;SDS011;13444;50.562;7.262;2022-09-29T08:15:59;13.53;;;9.93;;
25549;SDS011;13444;50.562;7.262;2022-09-29T08:18:26;14.23;;;10.07;;
25549;SDS011;13444;50.562;7.262;2022-09-29T08:20:52;16.13;;;9.23;;
25549;SDS011;13444;50.562;7.262;2022-09-29T08:23:18;11.40;;;9.10;;
25549;SDS011;13444;50.562;7.262;2022-09-29T08:25:44;15.23;;;10.90;;
25549;SDS011;13444;50.562;7.262;2022-09-29T08:28:10;16.47;;;11.43;;
25549;SDS011;13444;50.562;7.262;2022-09-29T08:30:35;16.57;;;12.13;;
25549;SDS011;13444;50.562;7.262;2022-09-29T08:33:02;13.43;;;11.27;;
25549;SDS011;13444;50.562;7.262;2022-09-29T08:35:28;16.87;;;11.40;;
25549;SDS011;13444;50.562;7.262;2022-09-29T08:37:54;17.07;;;12.63;;
25549;SDS011;13444;50.562;7.262;2022-09-29T08:40:21;17.10;;;12.77;;
25549;SDS011;13444;50.562;7.262;2022-09-29T08:45:27;16.83;;;12.27;;
25549;SDS011;13444;50.562;7.262;2022-09-29T08:48:03;17.60;;;11.87;;
25549;SDS011;13444;50.562;7.262;2022-09-29T08:53:20;13.80;;;10.57;;
25549;SDS011;13444;50.562;7.262;2022-09-29T08:55:55;17.10;;;10.05;;
25549;SDS011;13444;50.562;7.262;2022-09-29T08:58:22;13.85;;;9.88;;
25549;SDS011;13444;50.562;7.262;2022-09-29T09:03:25;14.10;;;7.00;;
25549;SDS011;13444;50.562;7.262;2022-09-29T09:11:34;9.48;;;6.53;;
25549;SDS011;13444;50.562;7.262;2022-09-29T09:19:46;6.57;;;5.85;;
25549;SDS011;13444;50.562;7.262;2022-09-29T09:24:47;8.35;;;6.15;;
25549;SDS011;13444;50.562;7.262;2022-09-29T09:27:20;11.07;;;6.05;;
25549;SDS011;13444;50.562;7.262;2022-09-29T09:29:53;7.05;;;5.70;;
25549;SDS011;13444;50.562;7.262;2022-09-29T09:32:27;12.60;;;5.70;;
25549;SDS011;13444;50.562;7.262;2022-09-29T09:35:18;8.98;;;6.20;;
25549;SDS011;13444;50.562;7.262;2022-09-29T09:38:09;10.32;;;6.70;;
25549;SDS011;13444;50.562;7.262;2022-09-29T09:40:44;7.80;;;6.95;;
25549;SDS011;13444;50.562;7.262;2022-09-29T09:43:17;11.25;;;7.10;;
25549;SDS011;13444;50.562;7.262;2022-09-29T09:45:56;8.23;;;6.63;;
25549;SDS011;13444;50.562;7.262;2022-09-29T09:51:01;9.10;;;6.47;;
25549;SDS011;13444;50.562;7.262;2022-09-29T09:53:44;8.48;;;6.53;;
25549;SDS011;13444;50.562;7.262;2022-09-29T09:56:20;9.48;;;6.97;;
25549;SDS011;13444;50.562;7.262;2022-09-29T10:01:59;7.65;;;5.28;;
25549;SDS011;13444;50.562;7.262;2022-09-29T10:04:25;10.63;;;5.43;;
25549;SDS011;13444;50.562;7.262;2022-09-29T10:06:50;6.75;;;5.72;;
25549;SDS011;13444;50.562;7.262;2022-09-29T10:09:16;6.82;;;4.97;;
25549;SDS011;13444;50.562;7.262;2022-09-29T10:11:43;7.43;;;4.57;;
25549;SDS011;13444;50.562;7.262;2022-09-29T10:16:50;8.73;;;5.28;;
25549;SDS011;13444;50.562;7.262;2022-09-29T10:19:21;9.57;;;4.55;;
25549;SDS011;13444;50.562;7.262;2022-09-29T10:22:11;5.63;;;4.30;;
25549;SDS011;13444;50.562;7.262;2022-09-29T10:24:38;6.43;;;4.60;;
25549;SDS011;13444;50.562;7.262;2022-09-29T10:27:04;7.55;;;4.97;;
25549;SDS011;13444;50.562;7.262;2022-09-29T10:29:32;5.03;;;4.20;;
25549;SDS011;13444;50.562;7.262;2022-09-29T10:34:52;4.45;;;3.72;;
25549;SDS011;13444;50.562;7.262;2022-09-29T10:37:29;6.60;;;4.25;;
25549;SDS011;13444;50.562;7.262;2022-09-29T10:42:37;9.38;;;4.03;;
25549;SDS011;13444;50.562;7.262;2022-09-29T10:45:14;4.78;;;3.55;;
25549;SDS011;13444;50.562;7.262;2022-09-29T10:47:44;5.22;;;3.85;;
25549;SDS011;13444;50.562;7.262;2022-09-29T10:50:14;6.50;;;4.07;;
25549;SDS011;13444;50.562;7.262;2022-09-29T10:52:52;6.55;;;4.20;;
25549;SDS011;13444;50.562;7.262;2022-09-29T10:55:25;5.57;;;3.90;;
25549;SDS011;13444;50.562;7.262;2022-09-29T10:57:53;4.78;;;3.40;;
25549;SDS011;13444;50.562;7.262;2022-09-29T11:00:28;7.25;;;3.67;;
25549;SDS011;13444;50.562;7.262;2022-09-29T11:03:21;5.80;;;3.17;;
25549;SDS011;13444;50.562;7.262;2022-09-29T11:05:51;6.13;;;3.00;;
25549;SDS011;13444;50.562;7.262;2022-09-29T11:08:25;7.50;;;4.03;;
25549;SDS011;13444;50.562;7.262;2022-09-29T11:13:45;9.48;;;4.47;;
25549;SDS011;13444;50.562;7.262;2022-09-29T11:18:43;8.40;;;4.63;;
25549;SDS011;13444;50.562;7.262;2022-09-29T11:21:24;7.75;;;3.75;;
25549;SDS011;13444;50.562;7.262;2022-09-29T11:27:29;5.53;;;3.67;;
25549;SDS011;13444;50.562;7.262;2022-09-29T11:30:20;5.05;;;3.58;;
25549;SDS011;13444;50.562;7.262;2022-09-29T11:41:26;5.13;;;1.70;;
25549;SDS011;13444;50.562;7.262;2022-09-29T11:47:48;4.97;;;1.63;;
25549;SDS011;13444;50.562;7.262;2022-09-29T12:04:21;4.45;;;1.92;;
25549;SDS011;13444;50.562;7.262;2022-09-29T12:09:48;2.97;;;1.55;;
25549;SDS011;13444;50.562;7.262;2022-09-29T12:12:30;6.63;;;2.22;;
25549;SDS011;13444;50.562;7.262;2022-09-29T12:15:24;3.50;;;1.85;;
25549;SDS011;13444;50.562;7.262;2022-09-29T12:18:13;3.33;;;1.60;;
25549;SDS011;13444;50.562;7.262;2022-09-29T12:20:42;5.30;;;2.33;;
25549;SDS011;13444;50.562;7.262;2022-09-29T12:23:12;3.05;;;2.25;;
25549;SDS011;13444;50.562;7.262;2022-09-29T12:25:42;5.68;;;2.25;;
25549;SDS011;13444;50.562;7.262;2022-09-29T12:28:19;5.32;;;2.42;;
25549;SDS011;13444;50.562;7.262;2022-09-29T12:33:55;4.90;;;2.10;;
25549;SDS011;13444;50.562;7.262;2022-09-29T12:36:52;8.00;;;2.50;;
25549;SDS011;13444;50.562;7.262;2022-09-29T12:39:40;6.15;;;2.40;;
25549;SDS011;13444;50.562;7.262;2022-09-29T12:45:27;7.28;;;2.40;;
25549;SDS011;13444;50.562;7.262;2022-09-29T12:50:49;4.18;;;2.00;;
25549;SDS011;13444;50.562;7.262;2022-09-29T12:53:26;4.68;;;1.60;;
25549;SDS011;13444;50.562;7.262;2022-09-29T12:56:04;5.80;;;2.60;;
25549;SDS011;13444;50.562;7.262;2022-09-29T12:58:38;2.58;;;1.80;;
25549;SDS011;13444;50.562;7.262;2022-09-29T13:06:48;2.90;;;1.55;;
25549;SDS011;13444;50.562;7.262;2022-09-29T13:09:47;7.40;;;2.50;;
25549;SDS011;13444;50.562;7.262;2022-09-29T13:18:26;4.22;;;1.30;;
25549;SDS011;13444;50.562;7.262;2022-09-29T13:24:11;4.47;;;1.75;;
25549;SDS011;13444;50.562;7.262;2022-09-29T13:29:40;4.47;;;2.00;;
25549;SDS011;13444;50.562;7.262;2022-09-29T13:32:10;7.85;;;2.08;;
25549;SDS011;13444;50.562;7.262;2022-09-29T13:34:37;1.83;;;1.40;;
25549;SDS011;13444;50.562;7.262;2022-09-29T13:37:05;1.80;;;0.90;;
25549;SDS011;13444;50.562;7.262;2022-09-29T13:39:36;1.15;;;0.80;;
25549;SDS011;13444;50.562;7.262;2022-09-29T13:42:24;3.47;;;0.85;;
25549;SDS011;13444;50.562;7.262;2022-09-29T13:47:39;1.02;;;0.65;;
25549;SDS011;13444;50.562;7.262;2022-09-29T13:55:51;1.98;;;0.60;;
25549;SDS011;13444;50.562;7.262;2022-09-29T14:01:08;2.42;;;0.70;;
25549;SDS011;13444;50.562;7.262;2022-09-29T14:03:37;0.77;;;0.52;;
25549;SDS011;13444;50.562;7.262;2022-09-29T14:08:44;2.10;;;0.82;;
25549;SDS011;13444;50.562;7.262;2022-09-29T14:11:33;0.77;;;0.70;;
25549;SDS011;13444;50.562;7.262;2022-09-29T14:16:55;1.75;;;0.93;;
25549;SDS011;13444;50.562;7.262;2022-09-29T14:27:39;2.83;;;0.70;;
25549;SDS011;13444;50.562;7.262;2022-09-29T14:32:57;3.40;;;1.00;;
25549;SDS011;13444;50.562;7.262;2022-09-29T14:35:32;1.65;;;0.80;;
25549;SDS011;13444;50.562;7.262;2022-09-29T14:38:16;2.63;;;0.90;;
25549;SDS011;13444;50.562;7.262;2022-09-29T14:55:35;1.60;;;0.75;;
25549;SDS011;13444;50.562;7.262;2022-09-29T14:58:25;1.75;;;0.98;;
25549;SDS011;13444;50.562;7.262;2022-09-29T15:01:23;5.40;;;1.35;;
25549;SDS011;13444;50.562;7.262;2022-09-29T15:03:52;1.90;;;1.02;;
25549;SDS011;13444;50.562;7.262;2022-09-29T15:06:23;2.58;;;0.98;;
25549;SDS011;13444;50.562;7.262;2022-09-29T15:08:53;2.50;;;1.00;;
25549;SDS011;13444;50.562;7.262;2022-09-29T15:11:35;3.35;;;0.90;;
25549;SDS011;13444;50.562;7.262;2022-09-29T15:14:21;1.20;;;0.93;;
25549;SDS011;13444;50.562;7.262;2022-09-29T15:19:35;3.05;;;1.20;;
25549;SDS011;13444;50.562;7.262;2022-09-29T15:22:29;1.80;;;0.90;;
25549;SDS011;13444;50.562;7.262;2022-09-29T15:25:15;4.28;;;1.35;;
25549;SDS011;13444;50.562;7.262;2022-09-29T15:27:54;1.88;;;0.80;;
25549;SDS011;13444;50.562;7.262;2022-09-29T15:30:27;1.77;;;0.90;;
25549;SDS011;13444;50.562;7.262;2022-09-29T15:33:02;1.55;;;0.70;;
25549;SDS011;13444;50.562;7.262;2022-09-29T15:35:48;3.05;;;0.85;;
25549;SDS011;13444;50.562;7.262;2022-09-29T15:38:25;1.08;;;0.60;;
25549;SDS011;13444;50.562;7.262;2022-09-29T15:40:57;2.17;;;0.70;;
25549;SDS011;13444;50.562;7.262;2022-09-29T15:43:26;1.25;;;0.70;;
25549;SDS011;13444;50.562;7.262;2022-09-29T15:45:58;1.95;;;0.80;;
25549;SDS011;13444;50.562;7.262;2022-09-29T15:48:27;4.30;;;0.85;;
25549;SDS011;13444;50.562;7.262;2022-09-29T15:50:55;0.70;;;0.68;;
25549;SDS011;13444;50.562;7.262;2022-09-29T15:53:22;2.30;;;0.93;;
25549;SDS011;13444;50.562;7.262;2022-09-29T15:55:50;1.13;;;1.02;;
25549;SDS011;13444;50.562;7.262;2022-09-29T16:01:01;1.45;;;0.90;;
25549;SDS011;13444;50.562;7.262;2022-09-29T16:06:12;1.65;;;0.90;;
25549;SDS011;13444;50.562;7.262;2022-09-29T16:08:46;2.95;;;1.05;;
25549;SDS011;13444;50.562;7.262;2022-09-29T16:11:18;3.00;;;1.30;;
25549;SDS011;13444;50.562;7.262;2022-09-29T16:13:54;2.55;;;1.95;;
25549;SDS011;13444;50.562;7.262;2022-09-29T16:16:27;2.15;;;1.33;;
25549;SDS011;13444;50.562;7.262;2022-09-29T16:18:58;2.35;;;1.17;;
25549;SDS011;13444;50.562;7.262;2022-09-29T16:21:31;1.98;;;1.02;;
25549;SDS011;13444;50.562;7.262;2022-09-29T16:24:15;1.25;;;1.10;;
25549;SDS011;13444;50.562;7.262;2022-09-29T16:26:48;1.92;;;0.90;;
25549;SDS011;13444;50.562;7.262;2022-09-29T16:31:44;2.70;;;1.20;;
25549;SDS011;13444;50.562;7.262;2022-09-29T16:37:05;3.25;;;1.85;;
25549;SDS011;13444;50.562;7.262;2022-09-29T16:39:45;2.08;;;1.45;;
25549;SDS011;13444;50.562;7.262;2022-09-29T16:42:16;2.50;;;1.70;;
25549;SDS011;13444;50.562;7.262;2022-09-29T16:44:44;2.83;;;1.67;;
25549;SDS011;13444;50.562;7.262;2022-09-29T16:47:23;1.90;;;1.60;;
25549;SDS011;13444;50.562;7.262;2022-09-29T16:50:00;3.50;;;2.10;;
25549;SDS011;13444;50.562;7.262;2022-09-29T16:52:43;3.08;;;1.70;;
25549;SDS011;13444;50.562;7.262;2022-09-29T16:58:01;6.75;;;4.50;;
25549;SDS011;13444;50.562;7.262;2022-09-29T17:00:34;10.52;;;7.20;;
25549;SDS011;13444;50.562;7.262;2022-09-29T17:03:00;13.10;;;8.82;;
25549;SDS011;13444;50.562;7.262;2022-09-29T17:05:29;12.30;;;9.30;;
25549;SDS011;13444;50.562;7.262;2022-09-29T17:08:02;15.52;;;11.35;;
25549;SDS011;13444;50.562;7.262;2022-09-29T17:10:29;13.18;;;10.27;;
25549;SDS011;13444;50.562;7.262;2022-09-29T17:12:55;19.52;;;15.20;;
25549;SDS011;13444;50.562;7.262;2022-09-29T17:15:22;14.93;;;10.75;;
25549;SDS011;13444;50.562;7.262;2022-09-29T17:17:49;6.95;;;4.85;;
25549;SDS011;13444;50.562;7.262;2022-09-29T17:20:16;6.97;;;4.15;;
25549;SDS011;13444;50.562;7.262;2022-09-29T17:22:44;9.48;;;4.55;;
25549;SDS011;13444;50.562;7.262;2022-09-29T17:25:11;3.63;;;2.65;;
25549;SDS011;13444;50.562;7.262;2022-09-29T17:27:37;4.70;;;2.75;;
25549;SDS011;13444;50.562;7.262;2022-09-29T17:30:22;5.03;;;2.72;;
25549;SDS011;13444;50.562;7.262;2022-09-29T17:32:49;4.45;;;3.08;;
25549;SDS011;13444;50.562;7.262;2022-09-29T17:35:18;8.02;;;3.80;;
25549;SDS011;13444;50.562;7.262;2022-09-29T17:37:45;7.30;;;3.67;;
25549;SDS011;13444;50.562;7.262;2022-09-29T17:40:19;6.15;;;4.28;;
25549;SDS011;13444;50.562;7.262;2022-09-29T17:42:46;5.90;;;3.40;;
25549;SDS011;13444;50.562;7.262;2022-09-29T17:45:16;6.85;;;3.92;;
25549;SDS011;13444;50.562;7.262;2022-09-29T17:47:44;4.78;;;3.60;;
25549;SDS011;13444;50.562;7.262;2022-09-29T17:50:18;6.35;;;3.47;;
25549;SDS011;13444;50.562;7.262;2022-09-29T17:52:50;6.65;;;3.83;;
25549;SDS011;13444;50.562;7.262;2022-09-29T17:55:16;5.50;;;3.17;;
25549;SDS011;13444;50.562;7.262;2022-09-29T17:57:42;4.13;;;3.00;;
25549;SDS011;13444;50.562;7.262;2022-09-29T18:00:15;5.85;;;3.70;;
25549;SDS011;13444;50.562;7.262;2022-09-29T18:02:51;4.82;;;3.13;;
25549;SDS011;13444;50.562;7.262;2022-09-29T18:05:20;9.18;;;3.78;;